Terminal Aerodrome Forecast
Issued by NWS Jackson, MS

Current Version | Previous Version | Text Only | Print | Product List | Glossary On
Versions: 1 2 3 4 5 6 7 8 9 10 11 12
000
FTUS44 KJAN 250546 RRA
TAFMEI
TAF
KMEI 250546Z 2506/2606 17007KT P6SM BKN010 BKN030
     FM250830 18015G25KT 5SM -SHRA VCTS BKN015 OVC025CB
     FM250930 21015G25KT 4SM TSRA BKN015 OVC025CB
     FM251200 19012KT P6SM VCSH SCT008 BKN015
     FM251600 22012G19KT P6SM SCT020 BKN035
     FM260000 20009KT P6SM FEW040=

USA.gov is the U.S. government's official web portal to all federal, state and local government web resources and services.